createdAt,value
2019-05-02T00:00:00.905Z,99813.39
2019-05-02T00:01:14.111Z,99822.67
2019-05-02T00:02:23.998Z,99814.87
2019-05-02T00:03:26.991Z,99818.59
2019-05-02T00:04:31.295Z,99820.07
2019-05-02T00:05:35.799Z,99816.74
2019-05-02T00:06:42.861Z,99819.23
2019-05-02T00:07:58.536Z,99817.00
2019-05-02T00:09:12.254Z,99817.58
2019-05-02T00:10:24.837Z,99824.41
2019-05-02T00:11:30.218Z,99811.04
2019-05-02T00:12:34.739Z,99819.74
2019-05-02T00:13:40.107Z,99815.27
2019-05-02T00:14:44.576Z,99823.97
2019-05-02T00:15:50.257Z,99818.08
2019-05-02T00:16:54.507Z,99815.27
2019-05-02T00:18:01.388Z,99816.42
2019-05-02T00:19:09.224Z,99816.67
2019-05-02T00:20:11.655Z,99807.50
2019-05-02T00:21:16.658Z,99816.42
2019-05-02T00:22:21.987Z,99816.67
2019-05-02T00:23:28.102Z,99820.39
2019-05-02T00:24:33.958Z,99817.32
2019-05-02T00:25:39.068Z,99817.32
2019-05-02T00:26:43.384Z,99813.09
2019-05-02T00:27:47.676Z,99821.26
2019-05-02T00:28:55.443Z,99811.72
2019-05-02T00:30:00.425Z,99816.23
2019-05-02T00:31:07.470Z,99816.31
2019-05-02T00:32:11.977Z,99812.66
2019-05-02T00:33:16.142Z,99812.66
2019-05-02T00:34:20.387Z,99815.22
2019-05-02T00:35:24.667Z,99811.90
2019-05-02T00:36:28.845Z,99815.30
2019-05-02T00:37:33.022Z,99811.64
2019-05-02T00:38:38.797Z,99810.81
2019-05-02T00:39:45.115Z,99807.23
2019-05-02T00:40:49.220Z,99808.31
2019-05-02T00:41:53.566Z,99803.27
2019-05-02T00:43:00.603Z,99809.22
2019-05-02T00:44:10.571Z,99805.58
2019-05-02T00:45:14.088Z,99807.59
2019-05-02T00:46:18.046Z,99805.93
2019-05-02T00:47:33.849Z,99800.11
2019-05-02T00:48:42.592Z,99810.03
2019-05-02T00:49:48.255Z,99803.06
2019-05-02T00:50:52.587Z,99807.28
2019-05-02T00:52:01.241Z,99796.20
2019-05-02T00:53:02.594Z,99805.98
2019-05-02T00:54:06.760Z,99806.62
2019-05-02T00:55:10.937Z,99809.69
2019-05-02T00:56:15.272Z,99807.45
2019-05-02T00:57:20.053Z,99806.37
2019-05-02T00:58:27.373Z,99806.11
2019-05-02T00:59:31.577Z,99803.63
2019-05-02T01:00:40.414Z,99808.13
2019-05-02T01:01:49.224Z,99807.62
2019-05-02T01:02:56.076Z,99804.94
2019-05-02T01:04:01.893Z,99797.91
2019-05-02T01:05:06.351Z,99805.84
2019-05-02T01:06:14.411Z,99797.39
2019-05-02T01:07:20.268Z,99803.08
2019-05-02T01:08:22.992Z,99802.80
2019-05-02T01:09:27.244Z,99799.47
2019-05-02T01:10:31.493Z,99796.41
2019-05-02T01:11:36.174Z,99798.38
2019-05-02T01:12:44.458Z,99796.20
2019-05-02T01:13:50.381Z,99800.75
2019-05-02T01:14:52.653Z,99793.20
2019-05-02T01:15:56.832Z,99794.93
2019-05-02T01:17:01.252Z,99794.96
2019-05-02T01:18:08.073Z,99798.09
2019-05-02T01:19:16.052Z,99797.07
2019-05-02T01:20:22.139Z,99795.98
2019-05-02T01:21:24.555Z,99791.51
2019-05-02T01:22:28.805Z,99794.64
2019-05-02T01:23:33.101Z,99788.27
2019-05-02T01:24:39.913Z,99788.02
2019-05-02T01:25:47.346Z,99786.92
2019-05-02T01:26:54.061Z,99788.33
2019-05-02T01:28:17.614Z,99790.63
2019-05-02T01:29:24.912Z,99787.82
2019-05-02T01:30:46.804Z,99790.20
2019-05-02T01:32:10.762Z,99781.84
2019-05-02T01:33:16.646Z,99783.30
2019-05-02T01:34:22.509Z,99782.23
2019-05-02T01:35:31.566Z,99775.75
2019-05-02T01:36:36.708Z,99783.36
2019-05-02T01:37:59.614Z,99785.05
2019-05-02T01:39:07.547Z,99781.09
2019-05-02T01:40:17.547Z,99778.56
2019-05-02T01:41:18.972Z,99788.13
2019-05-02T01:42:23.187Z,99782.50
2019-05-02T01:43:29.542Z,99778.28
2019-05-02T01:44:36.366Z,99779.69
2019-05-02T01:45:41.869Z,99782.75
2019-05-02T01:46:45.544Z,99788.47
2019-05-02T01:47:54.132Z,99785.34
2019-05-02T01:48:59.367Z,99790.39
2019-05-02T01:50:05.208Z,99783.36
2019-05-02T01:51:11.936Z,99785.34
2019-05-02T01:52:18.989Z,99781.44
2019-05-02T01:53:21.334Z,99786.75
2019-05-02T01:54:26.583Z,99782.59
2019-05-02T01:55:30.842Z,99786.80
2019-05-02T01:56:35.309Z,99786.55
2019-05-02T01:57:39.888Z,99783.22
2019-05-02T01:58:45.541Z,99779.70
2019-05-02T01:59:59.076Z,99781.24
2019-05-02T02:01:05.154Z,99782.39
2019-05-02T02:02:09.404Z,99779.58
2019-05-02T02:03:16.293Z,99780.55
2019-05-02T02:04:22.137Z,99784.25
2019-05-02T02:05:27.618Z,99777.55
2019-05-02T02:06:32.578Z,99774.79
2019-05-02T02:07:36.965Z,99777.34
2019-05-02T02:08:41.355Z,99779.32
2019-05-02T02:09:45.877Z,99779.89
2019-05-02T02:10:55.657Z,99774.84
2019-05-02T02:11:56.202Z,99783.30
2019-05-02T02:13:04.602Z,99776.53
2019-05-02T02:14:12.173Z,99773.46
2019-05-02T02:15:13.066Z,99771.80
2019-05-02T02:16:17.384Z,99779.97
2019-05-02T02:17:22.431Z,99772.11
2019-05-02T02:18:29.425Z,99777.42
2019-05-02T02:19:39.141Z,99779.97
2019-05-02T02:20:49.333Z,99778.31
2019-05-02T02:22:02.186Z,99786.53
2019-05-02T02:23:10.141Z,99778.23
2019-05-02T02:24:16.221Z,99787.55
2019-05-02T02:25:27.132Z,99787.30
2019-05-02T02:26:31.316Z,99787.66
2019-05-02T02:27:35.524Z,99785.73
2019-05-02T02:28:39.843Z,99783.21
2019-05-02T02:29:45.326Z,99788.98
2019-05-02T02:30:50.674Z,99781.13
2019-05-02T02:31:55.441Z,99785.29
2019-05-02T02:33:07.770Z,99778.63
2019-05-02T02:34:06.293Z,99776.40
2019-05-02T02:35:12.604Z,99780.11
2019-05-02T02:36:29.985Z,99773.34
2019-05-02T02:37:22.941Z,99772.76
2019-05-02T02:38:33.630Z,99772.39
2019-05-02T02:39:33.077Z,99777.12
2019-05-02T02:40:38.610Z,99778.79
2019-05-02T02:41:52.286Z,99770.88
2019-05-02T02:42:51.911Z,99771.56
2019-05-02T02:44:03.545Z,99775.46
2019-05-02T02:45:12.954Z,99773.28
2019-05-02T02:46:19.888Z,99770.28
2019-05-02T02:47:24.365Z,99771.95
2019-05-02T02:48:33.585Z,99769.14
2019-05-02T02:49:35.864Z,99773.97
2019-05-02T02:50:42.925Z,99771.12
2019-05-02T02:51:46.446Z,99769.14
2019-05-02T02:52:50.673Z,99773.61
2019-05-02T02:54:03.145Z,99772.20
2019-05-02T02:55:00.866Z,99771.69
2019-05-02T02:56:07.855Z,99765.76
2019-05-02T02:57:19.963Z,99769.14
2019-05-02T02:58:18.139Z,99769.14
2019-05-02T02:59:26.232Z,99769.40
2019-05-02T03:00:28.418Z,99765.19
2019-05-02T03:01:35.425Z,99766.31
2019-05-02T03:02:47.791Z,99767.16
2019-05-02T03:03:45.720Z,99766.06
2019-05-02T03:04:49.934Z,99765.55
2019-05-02T03:06:05.267Z,99766.95
2019-05-02T03:07:04.989Z,99769.19
2019-05-02T03:08:09.234Z,99766.95
2019-05-02T03:09:13.720Z,99768.88
2019-05-02T03:10:19.576Z,99764.41
2019-05-02T03:11:25.791Z,99770.91
2019-05-02T03:12:54.793Z,99762.48
2019-05-02T03:14:07.602Z,99763.89
2019-05-02T03:15:20.687Z,99764.98
2019-05-02T03:16:30.777Z,99763.11
2019-05-02T03:17:34.951Z,99762.03
2019-05-02T03:18:40.555Z,99753.54
2019-05-02T03:19:45.170Z,99760.50
2019-05-02T03:20:49.365Z,99755.09
2019-05-02T03:21:54.531Z,99761.27
2019-05-02T03:23:00.084Z,99752.55
2019-05-02T03:24:05.758Z,99745.81
2019-05-02T03:25:10.334Z,99747.17
2019-05-02T03:26:15.782Z,99747.11
2019-05-02T03:27:20.578Z,99747.06
2019-05-02T03:28:24.763Z,99753.77
2019-05-02T03:29:39.801Z,99744.19
2019-05-02T03:30:37.570Z,99747.89
2019-05-02T03:31:41.019Z,99749.81
2019-05-02T03:33:03.005Z,99751.22
2019-05-02T03:33:56.294Z,99749.81
2019-05-02T03:34:57.677Z,99741.91
2019-05-02T03:36:01.836Z,99749.47
2019-05-02T03:37:10.249Z,99746.92
2019-05-02T03:38:17.290Z,99744.38
2019-05-02T03:39:22.394Z,99751.71
2019-05-02T03:40:32.205Z,99748.59
2019-05-02T03:41:33.067Z,99748.84
2019-05-02T03:42:47.730Z,99742.72
2019-05-02T03:44:12.079Z,99747.24
2019-05-02T03:45:16.570Z,99747.52
2019-05-02T03:46:22.692Z,99748.07
2019-05-02T03:47:27.430Z,99743.86
2019-05-02T03:48:31.817Z,99748.07
2019-05-02T03:49:40.757Z,99734.16
2019-05-02T03:50:45.546Z,99734.16
2019-05-02T03:51:55.896Z,99747.11
2019-05-02T03:52:56.478Z,99745.45
2019-05-02T03:54:07.390Z,99743.78
2019-05-02T03:55:06.943Z,99743.27
2019-05-02T03:56:13.797Z,99744.67
2019-05-02T03:57:17.066Z,99753.09
2019-05-02T03:58:21.892Z,99741.29
2019-05-02T03:59:37.097Z,99750.55
2019-05-02T04:00:32.622Z,99749.14
2019-05-02T04:01:41.495Z,99736.06
2019-05-02T04:02:45.866Z,99736.06
2019-05-02T04:03:57.082Z,99749.97
2019-05-02T04:05:00.535Z,99750.29
2019-05-02T04:06:05.092Z,99753.09
2019-05-02T04:07:09.648Z,99751.97
2019-05-02T04:08:20.729Z,99751.14
2019-05-02T04:09:38.840Z,99754.52
2019-05-02T04:10:46.178Z,99756.19
2019-05-02T04:11:50.488Z,99753.38
2019-05-02T04:12:58.361Z,99752.03
2019-05-02T04:14:00.527Z,99752.59
2019-05-02T04:15:09.756Z,99754.58
2019-05-02T04:16:15.354Z,99756.23
2019-05-02T04:17:19.587Z,99745.52
2019-05-02T04:18:23.909Z,99756.19
2019-05-02T04:19:28.676Z,99750.03
2019-05-02T04:20:36.866Z,99751.69
2019-05-02T04:21:41.062Z,99753.93
2019-05-02T04:22:49.071Z,99743.34
2019-05-02T04:23:51.672Z,99757.25
2019-05-02T04:24:56.857Z,99760.33
2019-05-02T04:26:06.816Z,99760.64
2019-05-02T04:27:13.682Z,99763.19
2019-05-02T04:28:18.367Z,99757.57
2019-05-02T04:29:31.298Z,99754.77
2019-05-02T04:30:32.556Z,99753.36
2019-05-02T04:31:38.585Z,99747.24
2019-05-02T04:32:49.895Z,99752.53
2019-05-02T04:33:51.238Z,99755.91
2019-05-02T04:34:58.019Z,99750.94
2019-05-02T04:36:13.525Z,99747.66
2019-05-02T04:37:08.378Z,99753.28
2019-05-02T04:38:20.378Z,99747.35
2019-05-02T04:39:21.630Z,99757.18
2019-05-02T04:40:24.431Z,99747.92
2019-05-02T04:41:30.739Z,99753.54
2019-05-02T04:42:35.843Z,99749.58
2019-05-02T04:43:50.344Z,99745.29
2019-05-02T04:45:09.562Z,99752.52
2019-05-02T04:45:56.400Z,99754.75
2019-05-02T04:46:59.756Z,99759.59
2019-05-02T04:48:04.249Z,99762.14
2019-05-02T04:49:09.175Z,99756.88
2019-05-02T04:50:17.880Z,99750.44
2019-05-02T04:51:20.670Z,99754.95
2019-05-02T04:52:25.216Z,99749.61
2019-05-02T04:53:36.732Z,99749.87
2019-05-02T04:54:35.354Z,99756.00
2019-05-02T04:55:39.605Z,99753.19
2019-05-02T04:56:49.530Z,99751.16
2019-05-02T04:57:50.941Z,99748.62
2019-05-02T04:58:55.447Z,99748.86
2019-05-02T05:00:06.485Z,99751.61
2019-05-02T05:01:05.705Z,99747.92
2019-05-02T05:02:09.918Z,99747.92
2019-05-02T05:03:15.787Z,99750.67
2019-05-02T05:04:19.976Z,99748.95
2019-05-02T05:05:27.368Z,99755.09
2019-05-02T05:06:31.113Z,99747.48
2019-05-02T05:07:40.864Z,99752.53
2019-05-02T05:08:41.693Z,99757.83
2019-05-02T05:09:47.971Z,99755.59
2019-05-02T05:10:52.262Z,99756.73
2019-05-02T05:11:58.997Z,99755.91
2019-05-02T05:13:02.497Z,99753.36
2019-05-02T05:14:07.152Z,99753.67
2019-05-02T05:15:15.165Z,99752.91
2019-05-02T05:16:18.843Z,99755.52
2019-05-02T05:17:25.183Z,99754.68
2019-05-02T05:18:29.038Z,99766.53
2019-05-02T05:19:33.271Z,99765.97
2019-05-02T05:20:38.584Z,99753.97
2019-05-02T05:21:43.441Z,99762.14
2019-05-02T05:22:47.930Z,99767.23
2019-05-02T05:23:59.592Z,99767.18
2019-05-02T05:25:01.469Z,99773.42
2019-05-02T05:26:07.281Z,99769.00
2019-05-02T05:27:13.185Z,99772.06
2019-05-02T05:28:19.754Z,99771.39
2019-05-02T05:29:23.514Z,99772.44
2019-05-02T05:30:27.834Z,99772.16
2019-05-02T05:31:32.390Z,99773.51
2019-05-02T05:32:37.574Z,99764.77
2019-05-02T05:33:41.822Z,99770.28
2019-05-02T05:34:47.829Z,99774.42
2019-05-02T05:35:52.682Z,99771.25
2019-05-02T05:36:58.333Z,99768.91
2019-05-02T05:38:02.764Z,99772.20
2019-05-02T05:39:08.548Z,99771.27
2019-05-02T05:40:12.996Z,99770.33
2019-05-02T05:41:22.760Z,99768.06
2019-05-02T05:42:30.240Z,99775.09
2019-05-02T05:43:29.957Z,99776.19
2019-05-02T05:44:34.142Z,99784.92
2019-05-02T05:45:50.778Z,99780.66
2019-05-02T05:46:46.970Z,99785.52
2019-05-02T05:47:52.361Z,99783.34
2019-05-02T05:48:57.811Z,99782.36
2019-05-02T05:50:02.033Z,99785.45
2019-05-02T05:51:07.279Z,99785.45
2019-05-02T05:52:11.575Z,99787.42
2019-05-02T05:53:17.373Z,99784.59
2019-05-02T05:54:21.763Z,99788.23
2019-05-02T05:55:28.004Z,99785.89
2019-05-02T05:56:32.552Z,99789.48
2019-05-02T05:57:38.477Z,99790.00
2019-05-02T05:58:48.086Z,99792.80
2019-05-02T05:59:48.682Z,99791.38
2019-05-02T06:00:55.339Z,99789.14
2019-05-02T06:02:05.387Z,99789.79
2019-05-02T06:03:13.119Z,99794.77
2019-05-02T06:04:13.870Z,99791.53
2019-05-02T06:05:18.413Z,99793.69
2019-05-02T06:06:24.457Z,99794.41
2019-05-02T06:07:33.093Z,99794.01
2019-05-02T06:08:34.922Z,99790.56
2019-05-02T06:09:39.171Z,99789.05
2019-05-02T06:10:44.047Z,99792.63
2019-05-02T06:11:50.777Z,99790.88
2019-05-02T06:12:55.292Z,99793.00
2019-05-02T06:13:59.472Z,99794.03
2019-05-02T06:15:04.523Z,99795.98
2019-05-02T06:16:10.587Z,99793.97
2019-05-02T06:17:14.907Z,99804.13
2019-05-02T06:18:19.037Z,99804.67
2019-05-02T06:19:23.378Z,99803.50
2019-05-02T06:20:30.531Z,99796.16
2019-05-02T06:21:33.532Z,99810.41
2019-05-02T06:22:37.983Z,99801.38
2019-05-02T06:23:42.168Z,99795.36
2019-05-02T06:24:50.848Z,99797.92
2019-05-02T06:25:53.518Z,99805.73
2019-05-02T06:26:57.707Z,99799.46
2019-05-02T06:28:05.394Z,99798.28
2019-05-02T06:29:08.325Z,99796.81
2019-05-02T06:30:12.569Z,99807.81
2019-05-02T06:31:17.310Z,99802.27
2019-05-02T06:32:21.710Z,99803.80
2019-05-02T06:33:30.434Z,99798.88
2019-05-02T06:34:31.999Z,99803.76
2019-05-02T06:35:37.326Z,99798.97
2019-05-02T06:36:41.541Z,99797.30
2019-05-02T06:37:49.934Z,99796.41
2019-05-02T06:38:56.160Z,99795.78
2019-05-02T06:39:57.804Z,99801.11
2019-05-02T06:41:01.987Z,99798.91
2019-05-02T06:42:06.210Z,99796.34
2019-05-02T06:43:11.409Z,99800.83
2019-05-02T06:44:18.655Z,99804.19
2019-05-02T06:45:22.889Z,99796.00
2019-05-02T06:46:28.216Z,99801.50
2019-05-02T06:47:36.039Z,99803.42
2019-05-02T06:48:39.101Z,99804.52
2019-05-02T06:49:43.369Z,99805.31
2019-05-02T06:50:47.658Z,99804.10
2019-05-02T06:51:56.240Z,99803.21
2019-05-02T06:52:57.990Z,99802.70
2019-05-02T06:54:02.246Z,99799.31
2019-05-02T06:55:07.045Z,99776.25
2019-05-02T06:56:12.700Z,99802.70
2019-05-02T06:57:19.013Z,99805.77
2019-05-02T06:58:24.031Z,99809.58
2019-05-02T06:59:29.034Z,99804.46
2019-05-02T07:00:38.424Z,99804.33
2019-05-02T07:01:39.301Z,99804.52
2019-05-02T07:02:43.537Z,99799.73
2019-05-02T07:03:47.739Z,99803.44
2019-05-02T07:04:54.825Z,99800.17
2019-05-02T07:05:58.765Z,99802.61
2019-05-02T07:07:05.011Z,99796.63
2019-05-02T07:08:11.816Z,99793.52
2019-05-02T07:09:15.247Z,99793.52
2019-05-02T07:10:25.276Z,99795.73
2019-05-02T07:11:26.000Z,99792.78
2019-05-02T07:12:30.260Z,99794.19
2019-05-02T07:13:36.310Z,99790.13
2019-05-02T07:14:41.275Z,99792.48
2019-05-02T07:15:50.620Z,99793.47
2019-05-02T07:16:59.411Z,99791.66
2019-05-02T07:18:10.682Z,99790.44
2019-05-02T07:19:21.870Z,99791.78
2019-05-02T07:20:24.765Z,99788.97
2019-05-02T07:21:29.266Z,99769.38
2019-05-02T07:22:38.768Z,99794.98
2019-05-02T07:23:39.405Z,99794.09
2019-05-02T07:24:43.680Z,99794.31
2019-05-02T07:25:47.937Z,99797.05
2019-05-02T07:26:56.481Z,99795.25
2019-05-02T07:27:58.128Z,99801.65
2019-05-02T07:29:02.381Z,99794.54
2019-05-02T07:30:07.755Z,99789.41
2019-05-02T07:31:13.874Z,99798.11
2019-05-02T07:32:19.348Z,99791.90
2019-05-02T07:33:23.857Z,99790.02
2019-05-02T07:34:28.044Z,99790.56
2019-05-02T07:35:32.271Z,99794.31
2019-05-02T07:36:38.327Z,99788.68
2019-05-02T07:37:44.016Z,99790.67
2019-05-02T07:38:48.547Z,99789.52
2019-05-02T07:39:53.228Z,99797.85
2019-05-02T07:40:57.377Z,99788.42
2019-05-02T07:42:05.915Z,99791.92
2019-05-02T07:43:07.626Z,99794.12
2019-05-02T07:44:11.882Z,99792.70
2019-05-02T07:45:16.282Z,99790.72
2019-05-02T07:46:21.047Z,99796.86
2019-05-02T07:47:28.901Z,99793.31
2019-05-02T07:48:33.425Z,99791.13
2019-05-02T07:49:37.684Z,99788.11
2019-05-02T07:50:46.395Z,99785.31
2019-05-02T07:51:52.335Z,99780.05
2019-05-02T07:52:54.792Z,99778.48
2019-05-02T07:53:59.110Z,99774.04
2019-05-02T07:55:06.634Z,99776.98
2019-05-02T07:56:12.422Z,99774.86
2019-05-02T07:57:15.802Z,99774.94
2019-05-02T07:58:19.995Z,99776.10
2019-05-02T07:59:25.139Z,99784.23
2019-05-02T08:00:37.182Z,99779.05
2019-05-02T08:01:44.896Z,99779.37
2019-05-02T08:02:46.675Z,99775.00
2019-05-02T08:03:50.862Z,99773.17
2019-05-02T08:04:55.040Z,99769.94
2019-05-02T08:06:00.316Z,99776.08
2019-05-02T08:07:04.953Z,99776.19
2019-05-02T08:08:09.233Z,99781.99
2019-05-02T08:09:13.510Z,99778.45
2019-05-02T08:10:22.061Z,99782.17
2019-05-02T08:11:24.412Z,99778.09
2019-05-02T08:12:28.710Z,99766.41
2019-05-02T08:13:32.946Z,99773.78
2019-05-02T08:14:37.193Z,99765.41
2019-05-02T08:15:45.597Z,99759.58
2019-05-02T08:16:47.404Z,99769.91
2019-05-02T08:17:53.885Z,99768.73
2019-05-02T08:19:01.314Z,99764.80
2019-05-02T08:20:08.413Z,99765.13
2019-05-02T08:21:11.546Z,99757.63
2019-05-02T08:22:15.830Z,99770.68
2019-05-02T08:23:25.508Z,99765.76
2019-05-02T08:24:26.081Z,99757.77
2019-05-02T08:25:30.268Z,99757.67
2019-05-02T08:26:45.001Z,99762.77
2019-05-02T08:28:00.138Z,99762.91
2019-05-02T08:29:06.350Z,99757.80
2019-05-02T08:30:12.352Z,99759.05
2019-05-02T08:31:18.851Z,99760.60
2019-05-02T08:32:22.540Z,99763.53
2019-05-02T08:33:29.297Z,99767.53
2019-05-02T08:34:33.842Z,99761.31
2019-05-02T08:35:38.022Z,99750.83
2019-05-02T08:36:42.313Z,99750.83
2019-05-02T08:37:46.605Z,99755.05
2019-05-02T08:38:53.587Z,99752.51
2019-05-02T08:39:56.775Z,99752.92
2019-05-02T08:41:01.365Z,99751.65
2019-05-02T08:42:05.809Z,99744.30
2019-05-02T08:43:10.964Z,99755.75
2019-05-02T08:44:16.982Z,99750.52
2019-05-02T08:45:22.293Z,99745.09
2019-05-02T08:46:26.582Z,99751.10
2019-05-02T08:47:30.847Z,99751.10
2019-05-02T08:48:36.419Z,99752.83
2019-05-02T08:49:42.526Z,99749.55
2019-05-02T08:50:46.956Z,99747.95
2019-05-02T08:51:51.195Z,99745.98
2019-05-02T08:52:55.361Z,99752.06
2019-05-02T08:53:59.540Z,99741.00
2019-05-02T08:55:09.915Z,99743.20
2019-05-02T08:56:16.499Z,99735.42
2019-05-02T08:57:17.852Z,99734.30
2019-05-02T08:58:22.542Z,99729.48
2019-05-02T08:59:26.797Z,99735.52
2019-05-02T09:00:32.110Z,99735.73
2019-05-02T09:01:37.248Z,99726.93
2019-05-02T09:02:42.182Z,99721.39
2019-05-02T09:03:55.193Z,99728.17
2019-05-02T09:04:58.721Z,99727.52
2019-05-02T09:06:05.707Z,99729.41
2019-05-02T09:07:05.009Z,99731.09
2019-05-02T09:08:14.059Z,99729.21
2019-05-02T09:09:15.371Z,99721.30
2019-05-02T09:10:19.553Z,99719.91
2019-05-02T09:11:25.034Z,99725.23
2019-05-02T09:12:31.548Z,99725.50
2019-05-02T09:13:37.189Z,99725.56
2019-05-02T09:14:42.582Z,99715.39
2019-05-02T09:15:51.241Z,99718.22
2019-05-02T09:16:52.735Z,99715.77
2019-05-02T09:17:56.914Z,99721.78
2019-05-02T09:19:02.770Z,99712.69
2019-05-02T09:20:15.430Z,99715.64
2019-05-02T09:21:13.168Z,99714.34
2019-05-02T09:22:17.347Z,99715.40
2019-05-02T09:23:22.798Z,99710.92
2019-05-02T09:24:27.058Z,99708.80
2019-05-02T09:25:32.407Z,99707.73
2019-05-02T09:26:38.739Z,99708.33
2019-05-02T09:27:42.964Z,99701.95
2019-05-02T09:28:47.141Z,99704.89
2019-05-02T09:29:51.902Z,99706.19
2019-05-02T09:30:57.264Z,99705.23
2019-05-02T09:32:02.368Z,99701.95
2019-05-02T09:33:06.868Z,99700.77
2019-05-02T09:34:11.832Z,99701.70
2019-05-02T09:35:16.061Z,99699.58
2019-05-02T09:36:20.283Z,99695.79
2019-05-02T09:37:24.459Z,99701.58
2019-05-02T09:38:28.745Z,99697.92
2019-05-02T09:39:36.492Z,99694.83
2019-05-02T09:40:38.936Z,99695.76
2019-05-02T09:41:43.279Z,99685.37
2019-05-02T09:42:52.121Z,99692.20
2019-05-02T09:43:53.371Z,99690.56
2019-05-02T09:44:57.643Z,99696.97
2019-05-02T09:46:02.589Z,99687.23
2019-05-02T09:47:06.896Z,99692.45
2019-05-02T09:48:12.606Z,99693.61
2019-05-02T09:49:16.947Z,99690.67
2019-05-02T09:50:29.534Z,99687.59
2019-05-02T09:51:27.204Z,99686.77
2019-05-02T09:52:32.198Z,99684.86
2019-05-02T09:53:37.409Z,99680.50
2019-05-02T09:54:45.909Z,99681.09
2019-05-02T09:55:52.076Z,99676.80
2019-05-02T09:56:53.828Z,99681.52
2019-05-02T09:57:58.167Z,99679.14
2019-05-02T09:59:22.738Z,99675.11
2019-05-02T10:00:32.218Z,99675.05
2019-05-02T10:01:34.936Z,99679.90
2019-05-02T10:02:39.368Z,99664.91
2019-05-02T10:03:43.810Z,99669.95
2019-05-02T10:04:48.118Z,99675.05
2019-05-02T10:05:52.449Z,99669.00
2019-05-02T10:06:56.755Z,99670.66
2019-05-02T10:08:03.104Z,99664.48
2019-05-02T10:09:07.302Z,99670.16
2019-05-02T10:10:14.072Z,99673.56
2019-05-02T10:11:22.459Z,99666.78
2019-05-02T10:12:24.204Z,99659.90
2019-05-02T10:13:28.399Z,99656.55
2019-05-02T10:14:33.142Z,99662.55
2019-05-02T10:15:37.504Z,99649.34
2019-05-02T10:16:42.642Z,99658.70
2019-05-02T10:17:46.992Z,99660.12
2019-05-02T10:18:52.302Z,99665.30
2019-05-02T10:19:57.298Z,99656.73
2019-05-02T10:21:03.040Z,99655.06
2019-05-02T10:22:07.552Z,99648.17
2019-05-02T10:23:19.345Z,99652.05
2019-05-02T10:24:18.079Z,99651.66
2019-05-02T10:25:23.150Z,99646.43
2019-05-02T10:26:28.552Z,99653.26
2019-05-02T10:27:32.863Z,99645.32
2019-05-02T10:28:49.309Z,99642.30
2019-05-02T10:29:49.856Z,99645.53
2019-05-02T10:30:56.647Z,99642.61
2019-05-02T10:32:01.781Z,99639.53
2019-05-02T10:33:06.621Z,99639.05
2019-05-02T10:34:16.269Z,99636.57
2019-05-02T10:35:19.760Z,99636.43
2019-05-02T10:36:24.196Z,99630.88
2019-05-02T10:37:30.560Z,99631.23
2019-05-02T10:38:34.759Z,99629.81
2019-05-02T10:39:39.343Z,99626.38
2019-05-02T10:40:43.597Z,99624.12
2019-05-02T10:41:47.841Z,99623.77
2019-05-02T10:42:52.354Z,99627.37
2019-05-02T10:43:59.350Z,99618.34
2019-05-02T10:45:02.846Z,99616.44
2019-05-02T10:46:27.747Z,99611.69
2019-05-02T10:47:32.305Z,99613.83
2019-05-02T10:48:38.131Z,99613.24
2019-05-02T10:49:46.678Z,99608.02
2019-05-02T10:50:52.639Z,99610.27
2019-05-02T10:51:56.828Z,99599.08
2019-05-02T10:53:03.563Z,99598.11
2019-05-02T10:54:07.289Z,99595.61
2019-05-02T10:55:12.862Z,99595.55
2019-05-02T10:56:17.092Z,99590.54
2019-05-02T10:57:21.931Z,99591.33
2019-05-02T10:58:31.164Z,99595.05
2019-05-02T10:59:32.780Z,99593.30
2019-05-02T11:00:38.416Z,99584.10
2019-05-02T11:01:44.325Z,99589.05
2019-05-02T11:03:08.368Z,99590.32
2019-05-02T11:04:14.189Z,99587.36
2019-05-02T11:05:24.697Z,99585.59
2019-05-02T11:06:25.913Z,99576.30
2019-05-02T11:07:30.219Z,99580.88
2019-05-02T11:08:36.829Z,99574.84
2019-05-02T11:09:42.005Z,99574.84
2019-05-02T11:10:46.269Z,99575.16
2019-05-02T11:11:51.973Z,99572.91
2019-05-02T11:12:58.030Z,99573.91
2019-05-02T11:14:22.447Z,99567.90
2019-05-02T11:15:33.578Z,99570.31
2019-05-02T11:16:42.284Z,99570.23
2019-05-02T11:17:47.387Z,99564.91
2019-05-02T11:19:05.013Z,99566.75
2019-05-02T11:20:12.284Z,99568.20
2019-05-02T11:21:18.913Z,99561.24
2019-05-02T11:22:23.174Z,99569.56
2019-05-02T11:23:27.590Z,99570.67
2019-05-02T11:24:31.779Z,99571.12
2019-05-02T11:25:36.069Z,99570.62
2019-05-02T11:26:40.541Z,99558.66
2019-05-02T11:27:44.800Z,99562.84
2019-05-02T11:28:48.990Z,99554.16
2019-05-02T11:29:54.135Z,99552.20
2019-05-02T11:31:02.672Z,99546.19
2019-05-02T11:32:04.498Z,99546.19
2019-05-02T11:33:08.680Z,99551.89
2019-05-02T11:34:12.978Z,99554.28
2019-05-02T11:35:17.250Z,99554.02
2019-05-02T11:36:22.466Z,99557.48
2019-05-02T11:37:26.686Z,99545.94
2019-05-02T11:38:45.555Z,99559.16
2019-05-02T11:39:44.774Z,99548.00
2019-05-02T11:40:43.507Z,99548.59
2019-05-02T11:41:47.748Z,99551.09
2019-05-02T11:42:52.259Z,99551.68
2019-05-02T11:43:56.439Z,99549.91
2019-05-02T11:45:02.662Z,99548.78
2019-05-02T11:46:07.779Z,99550.96
2019-05-02T11:47:12.650Z,99551.08
2019-05-02T11:48:19.730Z,99555.45
2019-05-02T11:49:24.008Z,99552.14
2019-05-02T11:50:33.180Z,99549.25
2019-05-02T11:51:34.572Z,99551.63
2019-05-02T11:52:39.222Z,99549.39
2019-05-02T11:53:43.882Z,99543.64
2019-05-02T11:54:49.570Z,99551.65
2019-05-02T11:56:03.704Z,99544.24
2019-05-02T11:57:05.164Z,99547.25
2019-05-02T11:58:12.561Z,99545.89
2019-05-02T11:59:20.804Z,99540.50
2019-05-02T12:00:22.917Z,99539.08
2019-05-02T12:01:35.560Z,99537.05
2019-05-02T12:02:37.765Z,99533.51
2019-05-02T12:03:46.245Z,99532.02
2019-05-02T12:04:53.980Z,99531.42
2019-05-02T12:05:56.784Z,99529.02
2019-05-02T12:07:04.732Z,99534.87
2019-05-02T12:08:08.094Z,99534.99
2019-05-02T12:09:13.381Z,99536.20
2019-05-02T12:10:17.670Z,99535.97
2019-05-02T12:11:22.855Z,99526.92
2019-05-02T12:12:31.668Z,99530.42
2019-05-02T12:13:33.451Z,99530.36
2019-05-02T12:14:37.748Z,99527.12
2019-05-02T12:15:44.201Z,99527.56
2019-05-02T12:16:48.032Z,99523.89
2019-05-02T12:17:52.221Z,99522.34
2019-05-02T12:19:08.480Z,99522.41
2019-05-02T12:20:02.682Z,99524.95
2019-05-02T12:21:07.260Z,99524.80
2019-05-02T12:22:13.058Z,99526.22
2019-05-02T12:23:17.504Z,99525.88
2019-05-02T12:24:22.181Z,99517.02
2019-05-02T12:25:26.429Z,99518.94
2019-05-02T12:26:32.393Z,99519.48
2019-05-02T12:27:36.978Z,99521.06
2019-05-02T12:28:42.874Z,99519.03
2019-05-02T12:29:50.173Z,99520.30
2019-05-02T12:30:53.758Z,99513.84
2019-05-02T12:31:58.430Z,99512.89
2019-05-02T12:33:03.292Z,99516.03
2019-05-02T12:34:07.737Z,99512.14
2019-05-02T12:35:11.984Z,99515.05
2019-05-02T12:36:16.211Z,99512.52
2019-05-02T12:37:21.884Z,99512.58
2019-05-02T12:38:26.249Z,99512.67
2019-05-02T12:39:31.685Z,99513.56
2019-05-02T12:40:36.508Z,99504.34
2019-05-02T12:41:42.274Z,99508.99
2019-05-02T12:42:47.115Z,99504.28
2019-05-02T12:43:52.483Z,99502.70
2019-05-02T12:44:57.083Z,99500.36
2019-05-02T12:46:02.247Z,99506.05
2019-05-02T12:47:07.798Z,99511.03
2019-05-02T12:48:12.916Z,99504.73
2019-05-02T12:49:25.314Z,99504.34
2019-05-02T12:50:26.328Z,99495.58
2019-05-02T12:51:32.039Z,99495.20
2019-05-02T12:52:36.463Z,99496.09